createdAt,value
2023-04-29T00:01:17.206Z,69.67
2023-04-29T00:03:43.708Z,72.30
2023-04-29T00:06:10.288Z,97.30
2023-04-29T00:08:36.716Z,94.57
2023-04-29T00:11:03.202Z,70.17
2023-04-29T00:13:29.556Z,67.97
2023-04-29T00:15:55.894Z,71.40
2023-04-29T00:18:22.239Z,67.57
2023-04-29T00:20:48.583Z,66.80
2023-04-29T00:23:14.914Z,82.70
2023-04-29T00:25:41.267Z,68.67
2023-04-29T00:28:07.598Z,66.20
2023-04-29T00:30:33.951Z,70.80
2023-04-29T00:33:00.360Z,69.13
2023-04-29T00:35:26.727Z,69.53
2023-04-29T00:37:53.058Z,69.47
2023-04-29T00:40:19.425Z,68.63
2023-04-29T00:42:45.773Z,67.80
2023-04-29T00:45:12.108Z,67.57
2023-04-29T00:47:38.742Z,66.27
2023-04-29T00:50:06.093Z,68.83
2023-04-29T00:52:32.449Z,69.50
2023-04-29T00:54:58.792Z,68.50
2023-04-29T00:57:25.367Z,67.53
2023-04-29T00:59:51.912Z,68.73
2023-04-29T01:02:18.387Z,69.00
2023-04-29T01:04:44.782Z,67.80
2023-04-29T01:07:21.373Z,67.60
2023-04-29T01:10:03.574Z,73.73
2023-04-29T01:12:35.882Z,69.00
2023-04-29T01:15:05.459Z,69.20
2023-04-29T01:17:36.572Z,70.90
2023-04-29T01:20:03.024Z,69.90
2023-04-29T01:22:29.390Z,70.13
2023-04-29T01:24:55.737Z,66.70
2023-04-29T01:27:30.275Z,65.53
2023-04-29T01:30:02.814Z,68.10
2023-04-29T01:32:34.843Z,69.33
2023-04-29T01:35:36.535Z,71.67
2023-04-29T01:38:23.478Z,81.80
2023-04-29T01:41:22.827Z,68.67
2023-04-29T01:43:50.834Z,139.70
2023-04-29T01:46:17.542Z,209.00
2023-04-29T01:48:44.112Z,68.57
2023-04-29T01:51:10.469Z,73.60
2023-04-29T01:53:36.809Z,85.23
2023-04-29T01:56:03.151Z,110.33
2023-04-29T01:58:29.511Z,59.70
2023-04-29T02:00:55.926Z,66.90
2023-04-29T02:03:22.415Z,257.90
2023-04-29T02:05:48.786Z,117.03
2023-04-29T02:08:15.125Z,94.13
2023-04-29T02:10:41.489Z,79.17
2023-04-29T02:13:07.845Z,64.63
2023-04-29T02:15:34.203Z,67.30
2023-04-29T02:18:00.581Z,151.17
2023-04-29T02:20:26.974Z,97.03
2023-04-29T02:22:53.367Z,246.67
2023-04-29T02:25:19.710Z,59.47
2023-04-29T02:27:46.087Z,60.23
2023-04-29T02:30:12.490Z,57.47
2023-04-29T02:32:38.880Z,61.63
2023-04-29T02:35:05.806Z,62.30
2023-04-29T02:37:32.145Z,58.03
2023-04-29T02:39:58.482Z,64.57
2023-04-29T02:42:24.833Z,122.73
2023-04-29T02:44:51.163Z,75.17
2023-04-29T02:47:17.515Z,88.20
2023-04-29T02:49:43.850Z,163.27
2023-04-29T02:52:10.191Z,90.30
2023-04-29T02:54:36.551Z,84.27
2023-04-29T02:57:02.905Z,79.33
2023-04-29T02:59:29.240Z,76.07
2023-04-29T03:01:55.594Z,98.20
2023-04-29T03:04:22.090Z,72.83
2023-04-29T03:06:48.724Z,78.67
2023-04-29T03:09:15.066Z,73.03
2023-04-29T03:11:41.416Z,67.50
2023-04-29T03:14:07.765Z,77.63
2023-04-29T03:16:34.179Z,73.33
2023-04-29T03:19:00.603Z,79.67
2023-04-29T03:21:26.956Z,69.20
2023-04-29T03:23:53.295Z,95.13
2023-04-29T03:26:19.695Z,74.47
2023-04-29T03:28:46.084Z,72.57
2023-04-29T03:31:12.490Z,68.10
2023-04-29T03:33:38.840Z,59.20
2023-04-29T03:36:05.420Z,62.90
2023-04-29T03:38:31.745Z,60.97
2023-04-29T03:40:58.123Z,59.27
2023-04-29T03:43:24.478Z,62.77
2023-04-29T03:45:50.894Z,64.30
2023-04-29T03:48:17.245Z,64.93
2023-04-29T03:50:43.630Z,64.67
2023-04-29T03:53:09.970Z,57.27
2023-04-29T03:55:36.310Z,63.77
2023-04-29T03:58:02.664Z,81.37
2023-04-29T04:00:30.166Z,94.23
2023-04-29T04:02:57.313Z,73.57
2023-04-29T04:05:23.734Z,143.67
2023-04-29T04:07:50.081Z,66.53
2023-04-29T04:10:16.445Z,88.00
2023-04-29T04:12:44.264Z,79.60
2023-04-29T04:15:10.839Z,130.60
2023-04-29T04:17:37.217Z,103.83
2023-04-29T04:20:03.731Z,86.50
2023-04-29T04:22:30.073Z,70.63
2023-04-29T04:24:56.402Z,64.23
2023-04-29T04:27:22.815Z,91.97
2023-04-29T04:29:53.684Z,71.83
2023-04-29T04:32:23.681Z,81.27
2023-04-29T04:34:50.560Z,72.57
2023-04-29T04:37:16.894Z,81.17
2023-04-29T04:39:43.342Z,67.80
2023-04-29T04:42:09.684Z,70.63
2023-04-29T04:44:36.020Z,68.13
2023-04-29T04:47:02.381Z,81.63
2023-04-29T04:49:28.720Z,150.20
2023-04-29T04:51:55.077Z,98.10
2023-04-29T04:54:21.419Z,65.40
2023-04-29T04:56:47.767Z,296.33
2023-04-29T04:59:14.199Z,299.20
2023-04-29T05:01:40.637Z,145.93
2023-04-29T05:04:07.188Z,202.93
2023-04-29T05:06:33.596Z,428.50
2023-04-29T05:08:59.951Z,457.07
2023-04-29T05:11:26.311Z,457.40
2023-04-29T05:13:52.663Z,496.23
2023-04-29T05:16:19.112Z,353.87
2023-04-29T05:18:45.481Z,405.33
2023-04-29T05:21:12.480Z,326.70
2023-04-29T05:23:38.833Z,168.33
2023-04-29T05:26:05.211Z,277.73
2023-04-29T05:28:31.550Z,73.43
2023-04-29T05:30:57.954Z,175.50
2023-04-29T05:33:24.328Z,84.47
2023-04-29T05:35:50.696Z,183.97
2023-04-29T05:38:17.051Z,219.37
2023-04-29T05:40:43.411Z,216.33
2023-04-29T05:43:09.761Z,90.27
2023-04-29T05:45:36.125Z,75.27
2023-04-29T05:48:02.521Z,271.00
2023-04-29T05:50:28.928Z,178.77
2023-04-29T05:52:55.275Z,85.97
2023-04-29T05:55:21.644Z,198.53
2023-04-29T05:57:47.998Z,95.47
2023-04-29T06:00:14.406Z,78.83
2023-04-29T06:02:50.627Z,75.97
2023-04-29T06:05:24.534Z,143.37
2023-04-29T06:07:51.103Z,78.63
2023-04-29T06:10:17.573Z,74.93
2023-04-29T06:12:43.939Z,82.83
2023-04-29T06:15:10.528Z,90.87
2023-04-29T06:17:36.931Z,136.07
2023-04-29T06:20:03.496Z,80.63
2023-04-29T06:22:29.867Z,80.33
2023-04-29T06:24:56.224Z,88.43
2023-04-29T06:27:22.596Z,64.83
2023-04-29T06:29:49.098Z,72.17
2023-04-29T06:32:15.449Z,68.27
2023-04-29T06:34:41.797Z,98.07
2023-04-29T06:37:08.154Z,130.80
2023-04-29T06:39:34.493Z,77.10
2023-04-29T06:42:00.849Z,105.00
2023-04-29T06:44:27.187Z,87.93
2023-04-29T06:46:53.563Z,83.60
2023-04-29T06:49:20.194Z,98.83
2023-04-29T06:51:46.546Z,89.37
2023-04-29T06:54:12.889Z,85.07
2023-04-29T06:56:39.243Z,86.60
2023-04-29T06:59:05.618Z,93.63
2023-04-29T07:01:32.033Z,90.13
2023-04-29T07:03:58.681Z,84.43
2023-04-29T07:06:25.164Z,92.87
2023-04-29T07:08:51.536Z,94.50
2023-04-29T07:11:17.906Z,84.17
2023-04-29T07:13:44.252Z,89.67
2023-04-29T07:16:17.090Z,103.57
2023-04-29T07:18:43.741Z,94.20
2023-04-29T07:21:10.099Z,90.30
2023-04-29T07:23:36.444Z,81.73
2023-04-29T07:26:15.815Z,76.43
2023-04-29T07:28:42.412Z,77.43
2023-04-29T07:31:08.880Z,75.60
2023-04-29T07:33:35.419Z,85.80
2023-04-29T07:36:02.273Z,99.70
2023-04-29T07:38:28.687Z,83.53
2023-04-29T07:40:55.095Z,106.13
2023-04-29T07:43:21.482Z,85.53
2023-04-29T07:45:48.313Z,116.00
2023-04-29T07:48:14.669Z,90.80
2023-04-29T07:50:41.020Z,84.33
2023-04-29T07:53:07.388Z,91.20
2023-04-29T07:55:33.784Z,91.83
2023-04-29T07:58:00.633Z,87.70
2023-04-29T08:00:27.120Z,96.63
2023-04-29T08:02:54.159Z,114.40
2023-04-29T08:05:20.867Z,83.53
2023-04-29T08:07:48.038Z,97.60
2023-04-29T08:10:14.792Z,163.30
2023-04-29T08:12:41.176Z,139.20
2023-04-29T08:15:09.670Z,123.40
2023-04-29T08:17:36.369Z,95.87
2023-04-29T08:20:02.876Z,105.70
2023-04-29T08:22:29.290Z,102.33
2023-04-29T08:24:55.627Z,94.93
2023-04-29T08:27:21.980Z,123.47
2023-04-29T08:29:48.361Z,100.77
2023-04-29T08:32:14.728Z,112.93
2023-04-29T08:34:41.076Z,150.30
2023-04-29T08:37:07.432Z,156.57
2023-04-29T08:39:33.783Z,128.70
2023-04-29T08:42:00.246Z,160.83
2023-04-29T08:44:26.681Z,103.13
2023-04-29T08:46:53.064Z,122.53
2023-04-29T08:49:19.401Z,104.87
2023-04-29T08:51:48.814Z,139.00
2023-04-29T08:54:15.162Z,116.23
2023-04-29T08:56:43.700Z,101.10
2023-04-29T08:59:10.057Z,97.30
2023-04-29T09:01:36.629Z,92.40
2023-04-29T09:04:44.958Z,102.07
2023-04-29T09:07:11.352Z,85.07
2023-04-29T09:09:37.694Z,102.40
2023-04-29T09:12:04.051Z,109.03
2023-04-29T09:14:30.429Z,124.87
2023-04-29T09:16:56.816Z,107.17
2023-04-29T09:19:32.916Z,98.03
2023-04-29T09:21:59.592Z,100.17
2023-04-29T09:24:26.647Z,146.40
2023-04-29T09:26:53.102Z,90.80
2023-04-29T09:29:19.451Z,137.63
2023-04-29T09:31:46.001Z,138.43
2023-04-29T09:34:12.513Z,112.87
2023-04-29T09:36:42.668Z,115.73
2023-04-29T09:39:09.587Z,98.20
2023-04-29T09:41:35.972Z,92.30
2023-04-29T09:44:06.005Z,86.93
2023-04-29T09:46:35.653Z,86.37
2023-04-29T09:49:03.168Z,89.30
2023-04-29T09:51:29.532Z,88.90
2023-04-29T09:53:55.882Z,85.90
2023-04-29T09:56:22.232Z,85.23
2023-04-29T09:58:48.574Z,87.50
2023-04-29T10:01:14.952Z,92.87
2023-04-29T10:03:41.420Z,95.87
2023-04-29T10:06:07.962Z,89.57
2023-04-29T10:08:34.438Z,93.73
2023-04-29T10:11:01.961Z,101.07
2023-04-29T10:13:28.525Z,156.50
2023-04-29T10:16:11.033Z,123.80
2023-04-29T10:18:37.667Z,111.80
2023-04-29T10:21:07.166Z,104.87
2023-04-29T10:23:33.662Z,101.70
2023-04-29T10:26:00.713Z,110.03
2023-04-29T10:28:27.052Z,88.47
2023-04-29T10:30:54.093Z,91.57
2023-04-29T10:33:20.644Z,91.13
2023-04-29T10:35:47.029Z,98.37
2023-04-29T10:38:18.497Z,96.50
2023-04-29T10:40:45.500Z,103.83
2023-04-29T10:43:11.854Z,120.53
2023-04-29T10:45:38.515Z,113.33
2023-04-29T10:48:04.793Z,127.83
2023-04-29T10:50:49.208Z,99.97
2023-04-29T10:53:16.863Z,87.73
2023-04-29T10:55:43.219Z,103.63
2023-04-29T10:58:40.432Z,102.03
2023-04-29T11:01:07.011Z,91.90
2023-04-29T11:03:52.002Z,93.43
2023-04-29T11:06:18.620Z,95.27
2023-04-29T11:08:44.967Z,95.07
2023-04-29T11:11:12.860Z,92.17
2023-04-29T11:13:39.806Z,103.37
2023-04-29T11:16:10.195Z,102.40
2023-04-29T11:18:37.701Z,98.47
2023-04-29T11:21:06.978Z,114.90
2023-04-29T11:23:39.539Z,125.20
2023-04-29T11:26:05.900Z,121.60
2023-04-29T11:28:32.633Z,112.20
2023-04-29T11:30:59.078Z,131.53
2023-04-29T11:33:26.108Z,132.73
2023-04-29T11:35:52.475Z,107.30
2023-04-29T11:38:21.005Z,108.80
2023-04-29T11:40:50.481Z,106.80
2023-04-29T11:43:17.736Z,132.17
2023-04-29T11:45:47.344Z,112.73
2023-04-29T11:48:24.103Z,132.83
2023-04-29T11:50:51.966Z,180.23
2023-04-29T11:53:21.861Z,222.57
2023-04-29T11:55:48.220Z,245.83
2023-04-29T11:58:14.947Z,122.37
2023-04-29T12:00:41.311Z,128.90
2023-04-29T12:03:14.466Z,93.67
2023-04-29T12:05:46.705Z,89.00
2023-04-29T12:08:13.181Z,92.70
2023-04-29T12:10:39.548Z,103.17
2023-04-29T12:13:06.229Z,106.53
2023-04-29T12:15:33.312Z,103.83
2023-04-29T12:18:00.510Z,95.57
2023-04-29T12:20:26.876Z,97.27
2023-04-29T12:22:53.337Z,134.67
2023-04-29T12:25:19.695Z,117.10
2023-04-29T12:27:46.043Z,122.33
2023-04-29T12:30:12.599Z,130.70
2023-04-29T12:32:39.270Z,108.23
2023-04-29T12:35:05.937Z,107.77
2023-04-29T12:37:33.157Z,127.10
2023-04-29T12:39:59.500Z,138.93
2023-04-29T12:42:32.514Z,103.27
2023-04-29T12:44:58.900Z,120.30
2023-04-29T12:47:25.322Z,144.80
2023-04-29T12:49:51.674Z,112.40
2023-04-29T12:52:18.032Z,187.07
2023-04-29T12:54:44.434Z,191.73
2023-04-29T12:57:11.945Z,176.40
2023-04-29T12:59:38.456Z,148.17
2023-04-29T13:02:06.614Z,125.00
2023-04-29T13:04:34.042Z,120.13
2023-04-29T13:07:00.566Z,179.77
2023-04-29T13:09:27.041Z,126.57
2023-04-29T13:11:53.433Z,153.93
2023-04-29T13:14:20.037Z,139.63
2023-04-29T13:16:47.007Z,127.33
2023-04-29T13:21:44.283Z,166.33
2023-04-29T13:24:10.656Z,92.63
2023-04-29T13:26:37.009Z,111.63
2023-04-29T13:29:03.366Z,105.90
2023-04-29T13:31:30.247Z,104.93
2023-04-29T13:33:57.323Z,96.40
2023-04-29T13:36:23.774Z,116.17
2023-04-29T13:38:55.068Z,126.43
2023-04-29T13:41:22.079Z,136.43
2023-04-29T13:43:50.777Z,113.90
2023-04-29T13:46:20.695Z,101.57
2023-04-29T14:01:44.205Z,96.50
2023-04-29T14:04:03.492Z,105.67
2023-04-29T14:06:29.935Z,131.03
2023-04-29T14:08:56.294Z,125.20
2023-04-29T14:11:22.708Z,97.83
2023-04-29T14:13:49.080Z,91.10
2023-04-29T14:16:15.697Z,116.13
2023-04-29T14:18:42.122Z,115.83
2023-04-29T14:21:08.518Z,94.97
2023-04-29T14:23:34.931Z,123.17
2023-04-29T14:28:30.549Z,246.13
2023-04-29T14:30:56.940Z,133.10
2023-04-29T14:33:23.319Z,139.97
2023-04-29T14:35:49.665Z,252.10
2023-04-29T14:38:16.004Z,364.60
2023-04-29T14:40:42.366Z,195.47
2023-04-29T14:43:08.714Z,510.03
2023-04-29T14:45:35.202Z,301.63
2023-04-29T14:48:01.565Z,317.53
2023-04-29T14:50:27.976Z,207.43
2023-04-29T14:52:54.315Z,121.73
2023-04-29T14:55:20.660Z,111.67
2023-04-29T14:57:47.003Z,201.93
2023-04-29T15:00:14.126Z,192.43
2023-04-29T15:02:40.559Z,267.97
2023-04-29T15:05:07.031Z,166.43
2023-04-29T15:07:33.380Z,138.97
2023-04-29T15:09:59.740Z,143.33
2023-04-29T15:12:26.074Z,102.33
2023-04-29T15:14:52.579Z,127.77
2023-04-29T15:17:19.112Z,98.40
2023-04-29T15:19:45.463Z,159.03
2023-04-29T15:22:11.795Z,134.87
2023-04-29T15:24:38.155Z,107.30
2023-04-29T15:27:04.493Z,104.50
2023-04-29T15:29:30.861Z,103.77
2023-04-29T15:31:57.287Z,104.07
2023-04-29T15:34:23.697Z,144.37
2023-04-29T15:36:50.052Z,104.67
2023-04-29T15:39:16.415Z,146.47
2023-04-29T15:41:42.755Z,147.87
2023-04-29T15:44:09.104Z,159.90
2023-04-29T15:46:35.444Z,213.20
2023-04-29T15:49:01.800Z,127.50
2023-04-29T15:51:28.153Z,100.40
2023-04-29T15:53:54.506Z,132.20
2023-04-29T15:56:20.885Z,182.13
2023-04-29T15:58:47.243Z,158.43
2023-04-29T16:01:13.618Z,142.77
2023-04-29T16:03:46.818Z,159.67
2023-04-29T16:06:13.304Z,108.83
2023-04-29T16:08:41.016Z,118.17
2023-04-29T16:11:07.358Z,112.93
2023-04-29T16:13:36.124Z,190.87
2023-04-29T16:16:02.794Z,162.40
2023-04-29T16:18:29.150Z,104.93
2023-04-29T16:20:55.501Z,103.27
2023-04-29T16:23:21.935Z,220.10
2023-04-29T16:25:48.274Z,134.87
2023-04-29T16:28:14.625Z,101.67
2023-04-29T16:30:40.993Z,80.63
2023-04-29T16:33:07.348Z,80.13
2023-04-29T16:35:33.708Z,80.13
2023-04-29T16:38:00.058Z,75.53
2023-04-29T16:40:26.494Z,83.10
2023-04-29T16:42:52.845Z,101.43
2023-04-29T16:45:20.475Z,159.40
2023-04-29T16:47:48.049Z,128.40
2023-04-29T16:50:14.455Z,106.53
2023-04-29T16:52:40.820Z,125.07
2023-04-29T16:55:07.419Z,224.70
2023-04-29T16:57:33.772Z,169.27
2023-04-29T17:00:00.151Z,79.63
2023-04-29T17:02:26.569Z,81.80
2023-04-29T17:04:53.055Z,88.63
2023-04-29T17:07:19.566Z,111.47
2023-04-29T17:09:46.471Z,121.80
2023-04-29T17:12:13.210Z,125.23
2023-04-29T17:14:40.362Z,113.97
2023-04-29T17:17:06.892Z,102.60
2023-04-29T17:19:33.367Z,118.17
2023-04-29T17:21:59.721Z,92.90
2023-04-29T17:24:26.075Z,137.47
2023-04-29T17:26:52.415Z,111.67
2023-04-29T17:29:18.795Z,141.83
2023-04-29T17:31:45.354Z,201.30
2023-04-29T17:34:12.396Z,126.63
2023-04-29T17:36:38.740Z,143.73
2023-04-29T17:39:05.089Z,97.53
2023-04-29T17:41:32.702Z,142.00
2023-04-29T17:43:59.060Z,202.37
2023-04-29T17:46:25.499Z,181.93
2023-04-29T17:48:51.909Z,170.70
2023-04-29T17:51:18.258Z,132.40
2023-04-29T17:53:44.607Z,127.50
2023-04-29T17:56:10.960Z,100.30
2023-04-29T17:58:37.316Z,97.23
2023-04-29T18:01:04.703Z,109.57
2023-04-29T18:03:31.240Z,92.67
2023-04-29T18:05:57.758Z,82.70
2023-04-29T18:08:24.103Z,107.57
2023-04-29T18:10:50.440Z,138.53
2023-04-29T18:13:16.788Z,83.97
2023-04-29T18:15:43.143Z,116.20
2023-04-29T18:18:09.540Z,83.80
2023-04-29T18:20:35.915Z,82.27
2023-04-29T18:23:02.266Z,91.93
2023-04-29T18:25:28.627Z,92.87
2023-04-29T18:28:03.517Z,94.07
2023-04-29T18:30:39.879Z,93.83
2023-04-29T18:33:06.252Z,122.43
2023-04-29T18:35:32.614Z,89.10
2023-04-29T18:37:59.096Z,106.53
2023-04-29T18:40:25.432Z,89.60
2023-04-29T18:42:51.766Z,147.50
2023-04-29T18:45:18.125Z,134.73
2023-04-29T18:47:44.511Z,173.83
2023-04-29T18:50:10.919Z,154.97
2023-04-29T18:52:37.276Z,308.70
2023-04-29T18:55:03.695Z,169.07
2023-04-29T18:57:30.033Z,95.07
2023-04-29T18:59:56.520Z,114.53
2023-04-29T19:02:22.952Z,92.30
2023-04-29T19:04:49.390Z,105.60
2023-04-29T19:07:15.751Z,93.03
2023-04-29T19:09:42.107Z,103.57
2023-04-29T19:12:08.456Z,71.73
2023-04-29T19:14:34.802Z,74.70
2023-04-29T19:17:01.201Z,73.40
2023-04-29T19:19:27.570Z,77.27
2023-04-29T19:21:53.940Z,80.47
2023-04-29T19:24:20.295Z,101.47
2023-04-29T19:26:46.636Z,123.23
2023-04-29T19:29:13.428Z,79.13
2023-04-29T19:31:39.822Z,116.03
2023-04-29T19:34:06.222Z,82.73
2023-04-29T19:36:32.565Z,76.27
2023-04-29T19:38:58.932Z,90.33
2023-04-29T19:41:25.288Z,117.33
2023-04-29T19:43:51.634Z,91.40
2023-04-29T19:46:18.042Z,105.70
2023-04-29T19:48:44.418Z,88.43
2023-04-29T19:51:10.774Z,108.67
2023-04-29T19:53:37.149Z,111.73
2023-04-29T19:56:03.527Z,100.50
2023-04-29T19:58:29.869Z,141.97
2023-04-29T20:00:56.260Z,135.47
2023-04-29T20:03:22.721Z,122.67
2023-04-29T20:05:49.166Z,117.87
2023-04-29T20:08:15.518Z,124.53
2023-04-29T20:10:41.903Z,124.50
2023-04-29T20:13:08.275Z,146.57
2023-04-29T20:15:34.744Z,76.23
2023-04-29T20:18:01.099Z,79.90
2023-04-29T20:20:27.492Z,88.97
2023-04-29T20:22:53.836Z,71.50
2023-04-29T20:25:20.190Z,81.83
2023-04-29T20:27:46.535Z,89.90
2023-04-29T20:30:12.949Z,76.47
2023-04-29T20:32:39.453Z,128.10
2023-04-29T20:35:06.056Z,101.50
2023-04-29T20:37:32.398Z,121.27
2023-04-29T20:39:58.775Z,97.20
2023-04-29T20:42:25.125Z,79.17
2023-04-29T20:44:51.489Z,86.47
2023-04-29T20:47:17.837Z,108.60
2023-04-29T20:49:44.191Z,97.87
2023-04-29T20:52:10.539Z,118.30
2023-04-29T20:54:36.908Z,122.60
2023-04-29T20:57:03.288Z,111.00
2023-04-29T20:59:29.639Z,86.30
2023-04-29T21:01:56.128Z,85.40
2023-04-29T21:04:22.665Z,71.33
2023-04-29T21:06:49.063Z,61.67
2023-04-29T21:09:15.418Z,74.70
2023-04-29T21:11:41.758Z,71.07
2023-04-29T21:14:08.095Z,87.07
2023-04-29T21:16:34.444Z,91.27
2023-04-29T21:19:00.782Z,80.50
2023-04-29T21:21:27.141Z,92.90
2023-04-29T21:23:53.474Z,77.83
2023-04-29T21:26:19.866Z,83.27
2023-04-29T21:28:46.206Z,93.90
2023-04-29T21:31:12.574Z,71.87
2023-04-29T21:33:38.945Z,77.60
2023-04-29T21:36:05.327Z,68.10
2023-04-29T21:38:31.657Z,79.57
2023-04-29T21:40:58.025Z,61.80
2023-04-29T21:43:24.363Z,87.80
2023-04-29T21:45:50.712Z,83.53
2023-04-29T21:48:17.891Z,79.90
2023-04-29T21:50:44.333Z,119.17
2023-04-29T21:53:13.784Z,143.87
2023-04-29T21:55:41.689Z,98.23
2023-04-29T21:58:08.050Z,81.23
2023-04-29T22:00:34.424Z,100.30
2023-04-29T22:03:01.186Z,135.27
2023-04-29T22:05:27.572Z,137.40
2023-04-29T22:07:53.987Z,137.10
2023-04-29T22:10:20.334Z,169.93
2023-04-29T22:12:46.682Z,156.63
2023-04-29T22:15:26.883Z,190.37
2023-04-29T22:17:54.428Z,148.53
2023-04-29T22:20:26.800Z,82.60
2023-04-29T22:23:06.385Z,119.30
2023-04-29T22:25:34.950Z,126.23
2023-04-29T22:31:01.355Z,92.90
2023-04-29T22:33:35.531Z,216.70
2023-04-29T22:39:04.881Z,154.83
2023-04-29T22:41:38.753Z,138.03
2023-04-29T22:44:10.121Z,84.90
2023-04-29T22:46:36.531Z,119.43
2023-04-29T22:49:20.964Z,154.50
2023-04-29T22:51:55.039Z,129.63
2023-04-29T22:57:34.494Z,183.13
2023-04-29T23:02:43.671Z,144.20
2023-04-29T23:05:10.094Z,135.00
2023-04-29T23:07:36.431Z,88.63
2023-04-29T23:10:02.788Z,105.83
2023-04-29T23:12:29.123Z,103.13
2023-04-29T23:14:55.496Z,146.03
2023-04-29T23:17:21.854Z,162.17
2023-04-29T23:19:48.204Z,135.57
2023-04-29T23:22:14.545Z,106.07
2023-04-29T23:24:40.897Z,99.80
2023-04-29T23:27:07.237Z,81.73
2023-04-29T23:29:33.566Z,77.63
2023-04-29T23:32:00.166Z,149.50
2023-04-29T23:34:26.503Z,134.60
2023-04-29T23:36:52.882Z,88.40
2023-04-29T23:39:19.225Z,173.13
2023-04-29T23:41:45.590Z,154.13
2023-04-29T23:44:11.956Z,68.00
2023-04-29T23:46:38.379Z,115.47
2023-04-29T23:49:04.748Z,87.93
2023-04-29T23:51:31.105Z,84.93
2023-04-29T23:53:57.457Z,131.60
2023-04-29T23:56:23.805Z,104.47
2023-04-29T23:58:50.156Z,107.97
